createdAt,value
2018-02-20T00:01:57.725Z,22.43
2018-02-20T00:04:25.202Z,22.43
2018-02-20T00:06:53.441Z,24.03
2018-02-20T00:09:20.901Z,23.90
2018-02-20T00:11:48.363Z,23.57
2018-02-20T00:14:15.834Z,22.90
2018-02-20T00:16:43.305Z,22.77
2018-02-20T00:19:11.934Z,20.83
2018-02-20T00:21:39.408Z,20.97
2018-02-20T00:24:06.888Z,20.97
2018-02-20T00:26:34.358Z,21.40
2018-02-20T00:29:01.840Z,21.70
2018-02-20T00:31:30.070Z,21.70
2018-02-20T00:33:57.550Z,20.17
2018-02-20T00:36:25.018Z,21.53
2018-02-20T00:38:53.266Z,20.53
2018-02-20T00:41:21.518Z,22.30
2018-02-20T00:43:48.994Z,22.13
2018-02-20T00:46:17.231Z,22.60
2018-02-20T00:48:44.706Z,23.00
2018-02-20T00:51:12.165Z,24.13
2018-02-20T00:53:39.650Z,21.40
2018-02-20T00:56:07.869Z,22.07
2018-02-20T00:58:35.356Z,20.87
2018-02-20T01:01:02.819Z,20.20
2018-02-20T01:03:30.299Z,22.90
2018-02-20T01:05:57.774Z,22.77
2018-02-20T01:08:25.240Z,21.40
2018-02-20T01:10:52.707Z,22.50
2018-02-20T01:13:20.965Z,21.17
2018-02-20T01:15:48.444Z,22.58
2018-02-20T01:18:16.692Z,24.00
2018-02-20T01:20:44.162Z,23.93
2018-02-20T01:23:11.643Z,24.43
2018-02-20T01:25:39.115Z,24.70
2018-02-20T01:28:06.600Z,24.30
2018-02-20T01:30:34.067Z,23.67
2018-02-20T01:33:01.557Z,23.48
2018-02-20T01:35:29.022Z,25.13
2018-02-20T01:37:57.299Z,23.83
2018-02-20T01:40:25.543Z,21.50
2018-02-20T01:42:53.013Z,24.58
2018-02-20T01:45:20.486Z,22.93
2018-02-20T01:47:47.946Z,22.57
2018-02-20T01:50:16.191Z,25.43
2018-02-20T01:52:43.654Z,23.47
2018-02-20T01:55:11.133Z,21.40
2018-02-20T01:57:38.608Z,24.50
2018-02-20T02:00:06.879Z,27.50
2018-02-20T02:02:35.124Z,26.60
2018-02-20T02:05:02.611Z,25.75
2018-02-20T02:07:30.845Z,25.17
2018-02-20T02:09:58.348Z,25.70
2018-02-20T02:12:25.862Z,24.67
2018-02-20T02:14:53.343Z,24.85
2018-02-20T02:17:20.871Z,24.85
2018-02-20T02:19:48.343Z,24.57
2018-02-20T02:22:15.810Z,24.77
2018-02-20T02:24:43.284Z,23.30
2018-02-20T02:27:10.761Z,26.90
2018-02-20T02:29:38.248Z,26.33
2018-02-20T02:32:05.725Z,24.43
2018-02-20T02:34:33.202Z,23.37
2018-02-20T02:37:00.673Z,24.00
2018-02-20T02:39:28.148Z,25.00
2018-02-20T02:41:56.382Z,25.60
2018-02-20T02:44:23.884Z,26.50
2018-02-20T02:46:52.121Z,24.83
2018-02-20T02:49:19.603Z,23.87
2018-02-20T02:51:47.067Z,24.27
2018-02-20T02:54:15.314Z,25.40
2018-02-20T02:56:42.786Z,26.57
2018-02-20T02:59:10.258Z,23.20
2018-02-20T03:01:38.505Z,23.67
2018-02-20T03:04:05.999Z,23.77
2018-02-20T03:06:34.230Z,26.75
2018-02-20T03:09:01.706Z,24.57
2018-02-20T03:11:29.207Z,24.33
2018-02-20T03:13:56.699Z,23.93
2018-02-20T03:16:24.175Z,23.40
2018-02-20T03:18:51.657Z,25.10
2018-02-20T03:21:19.898Z,24.67
2018-02-20T03:23:47.375Z,24.27
2018-02-20T03:26:14.843Z,26.15
2018-02-20T03:28:42.321Z,23.73
2018-02-20T03:31:10.559Z,24.53
2018-02-20T03:33:38.035Z,23.63
2018-02-20T03:36:05.505Z,27.13
2018-02-20T03:38:33.748Z,24.30
2018-02-20T03:41:01.224Z,24.67
2018-02-20T03:43:28.695Z,23.27
2018-02-20T03:45:56.933Z,24.60
2018-02-20T03:48:24.435Z,24.97
2018-02-20T03:50:52.683Z,24.80
2018-02-20T03:53:20.166Z,26.10
2018-02-20T03:55:47.639Z,22.70
2018-02-20T03:58:15.873Z,22.77
2018-02-20T04:00:43.362Z,25.80
2018-02-20T04:03:11.603Z,23.53
2018-02-20T04:05:39.083Z,24.53
2018-02-20T04:08:06.553Z,23.80
2018-02-20T04:10:34.795Z,24.80
2018-02-20T04:13:02.285Z,25.92
2018-02-20T04:15:30.525Z,25.80
2018-02-20T04:17:58.005Z,23.30
2018-02-20T04:20:25.485Z,24.60
2018-02-20T04:22:53.737Z,25.85
2018-02-20T04:25:21.218Z,26.63
2018-02-20T04:27:49.456Z,24.27
2018-02-20T04:30:16.933Z,25.90
2018-02-20T04:32:44.408Z,24.50
2018-02-20T04:35:13.015Z,24.52
2018-02-20T04:37:40.492Z,25.20
2018-02-20T04:40:07.978Z,25.92
2018-02-20T04:42:35.462Z,24.10
2018-02-20T04:45:03.698Z,22.90
2018-02-20T04:47:31.172Z,24.43
2018-02-20T04:49:58.657Z,25.40
2018-02-20T04:52:26.890Z,24.50
2018-02-20T04:54:54.371Z,25.40
2018-02-20T04:57:21.851Z,25.48
2018-02-20T04:59:50.136Z,25.20
2018-02-20T05:02:18.383Z,25.90
2018-02-20T05:04:45.869Z,24.70
2018-02-20T05:07:14.107Z,24.08
2018-02-20T05:09:41.598Z,23.67
2018-02-20T05:12:09.846Z,22.73
2018-02-20T05:14:37.332Z,20.77
2018-02-20T05:17:05.572Z,22.42
2018-02-20T05:19:33.057Z,24.90
2018-02-20T05:22:01.302Z,23.52
2018-02-20T05:24:28.786Z,23.85
2018-02-20T05:26:57.035Z,24.35
2018-02-20T05:29:24.515Z,26.50
2018-02-20T05:31:52.000Z,22.85
2018-02-20T05:34:19.483Z,23.25
2018-02-20T05:36:46.962Z,24.50
2018-02-20T05:39:15.206Z,22.30
2018-02-20T05:41:42.698Z,25.62
2018-02-20T05:44:10.166Z,25.95
2018-02-20T05:46:37.661Z,24.65
2018-02-20T05:49:05.907Z,26.95
2018-02-20T05:51:33.394Z,25.90
2018-02-20T05:54:01.634Z,25.88
2018-02-20T05:56:29.127Z,23.40
2018-02-20T05:58:57.364Z,24.58
2018-02-20T06:01:24.852Z,23.98
2018-02-20T06:03:53.141Z,22.77
2018-02-20T06:06:20.573Z,22.85
2018-02-20T06:08:48.045Z,22.75
2018-02-20T06:11:16.310Z,25.40
2018-02-20T06:13:43.782Z,25.25
2018-02-20T06:16:12.043Z,23.60
2018-02-20T06:18:39.518Z,23.20
2018-02-20T06:21:07.774Z,23.92
2018-02-20T06:23:35.246Z,28.30
2018-02-20T06:26:03.500Z,23.27
2018-02-20T06:28:30.974Z,26.17
2018-02-20T06:30:58.463Z,24.02
2018-02-20T06:33:26.358Z,25.95
2018-02-20T06:35:54.349Z,26.42
2018-02-20T06:38:21.822Z,23.57
2018-02-20T06:40:49.294Z,24.77
2018-02-20T06:43:17.538Z,23.98
2018-02-20T06:45:45.014Z,23.60
2018-02-20T06:48:12.495Z,24.10
2018-02-20T06:50:40.800Z,26.60
2018-02-20T06:53:08.218Z,25.20
2018-02-20T06:55:36.503Z,26.73
2018-02-20T06:58:03.950Z,25.83
2018-02-20T07:00:31.442Z,26.73
2018-02-20T07:02:58.928Z,25.80
2018-02-20T07:05:27.022Z,28.12
2018-02-20T07:07:54.495Z,29.40
2018-02-20T07:10:21.983Z,26.45
2018-02-20T07:12:49.454Z,26.90
2018-02-20T07:15:16.930Z,25.95
2018-02-20T07:17:44.414Z,27.60
2018-02-20T07:20:11.900Z,28.62
2018-02-20T07:22:40.153Z,30.48
2018-02-20T07:25:07.633Z,30.58
2018-02-20T07:27:35.876Z,27.42
2018-02-20T07:30:03.372Z,28.55
2018-02-20T07:32:31.609Z,26.27
2018-02-20T07:34:59.085Z,28.15
2018-02-20T07:37:26.572Z,27.67
2018-02-20T07:39:54.815Z,28.58
2018-02-20T07:42:22.299Z,26.93
2018-02-20T07:44:50.549Z,27.58
2018-02-20T07:47:18.039Z,30.52
2018-02-20T07:49:46.278Z,26.77
2018-02-20T07:52:13.763Z,27.50
2018-02-20T07:54:42.015Z,31.50
2018-02-20T07:57:09.510Z,31.40
2018-02-20T07:59:36.986Z,33.10
2018-02-20T08:02:04.466Z,34.20
2018-02-20T08:04:31.938Z,32.97
2018-02-20T08:06:59.418Z,31.53
2018-02-20T08:09:26.884Z,33.20
2018-02-20T08:11:54.370Z,34.20
2018-02-20T08:14:21.845Z,34.57
2018-02-20T08:16:49.330Z,32.47
2018-02-20T08:19:16.815Z,35.67
2018-02-20T08:21:45.067Z,36.40
2018-02-20T08:24:13.307Z,39.20
2018-02-20T08:26:40.787Z,38.20
2018-02-20T08:29:08.283Z,35.50
2018-02-20T08:31:36.534Z,36.13
2018-02-20T08:34:03.999Z,40.93
2018-02-20T08:36:31.496Z,34.83
2018-02-20T08:38:59.731Z,38.47
2018-02-20T08:41:27.886Z,34.27
2018-02-20T08:43:55.354Z,39.30
2018-02-20T08:46:23.286Z,41.17
2018-02-20T08:48:50.752Z,36.87
2018-02-20T08:51:18.226Z,36.30
2018-02-20T08:53:45.697Z,37.73
2018-02-20T08:56:13.181Z,38.00
2018-02-20T08:58:41.471Z,35.77
2018-02-20T09:01:09.714Z,32.83
2018-02-20T09:03:37.188Z,37.27
2018-02-20T09:06:04.665Z,35.93
2018-02-20T09:08:32.908Z,39.00
2018-02-20T09:11:00.380Z,33.97
2018-02-20T09:13:27.830Z,34.23
2018-02-20T09:15:55.319Z,36.43
2018-02-20T09:18:23.550Z,35.10
2018-02-20T09:20:51.656Z,34.40
2018-02-20T09:23:19.090Z,39.90
2018-02-20T09:25:46.571Z,36.87
2018-02-20T09:28:14.038Z,35.17
2018-02-20T09:30:42.286Z,36.63
2018-02-20T09:33:09.762Z,36.57
2018-02-20T09:35:37.227Z,34.67
2018-02-20T09:38:05.461Z,34.50
2018-02-20T09:40:32.954Z,37.00
2018-02-20T09:43:00.435Z,34.07
2018-02-20T09:45:27.911Z,37.77
2018-02-20T09:47:55.387Z,37.97
2018-02-20T09:50:22.864Z,34.77
2018-02-20T09:52:50.346Z,33.87
2018-02-20T09:55:17.841Z,37.83
2018-02-20T09:57:46.071Z,35.40
2018-02-20T10:00:13.551Z,38.17
2018-02-20T10:02:41.810Z,37.23
2018-02-20T10:05:09.267Z,36.90
2018-02-20T10:07:36.739Z,36.70
2018-02-20T10:10:04.970Z,36.20
2018-02-20T10:12:32.454Z,37.30
2018-02-20T10:14:59.950Z,35.20
2018-02-20T10:17:27.463Z,35.40
2018-02-20T10:19:54.919Z,37.17
2018-02-20T10:22:23.506Z,36.23
2018-02-20T10:24:50.983Z,35.90
2018-02-20T10:27:18.454Z,38.40
2018-02-20T10:29:46.694Z,35.37
2018-02-20T10:32:14.176Z,36.50
2018-02-20T10:34:42.411Z,34.87
2018-02-20T10:37:09.882Z,35.07
2018-02-20T10:39:37.352Z,37.47
2018-02-20T10:42:04.834Z,38.80
2018-02-20T10:44:33.061Z,37.70
2018-02-20T10:47:00.536Z,38.20
2018-02-20T10:49:28.001Z,38.23
2018-02-20T10:51:55.465Z,38.03
2018-02-20T10:54:22.933Z,36.23
2018-02-20T10:56:50.414Z,37.70
2018-02-20T10:59:17.906Z,38.17
2018-02-20T11:01:45.367Z,40.40
2018-02-20T11:04:12.840Z,39.20
2018-02-20T11:06:41.083Z,37.63
2018-02-20T11:09:08.550Z,38.60
2018-02-20T11:11:36.024Z,39.00
2018-02-20T11:14:03.496Z,39.33
2018-02-20T11:16:30.970Z,39.07
2018-02-20T11:18:58.435Z,40.47
2018-02-20T11:21:25.908Z,42.27
2018-02-20T11:23:54.143Z,41.40
2018-02-20T11:26:21.620Z,39.73
2018-02-20T11:28:49.079Z,41.53
2018-02-20T11:31:16.542Z,41.20
2018-02-20T11:33:44.022Z,43.20
2018-02-20T11:36:12.240Z,44.57
2018-02-20T11:38:40.500Z,42.90
2018-02-20T11:41:07.971Z,44.07
2018-02-20T11:43:35.458Z,45.50
2018-02-20T11:46:02.954Z,43.20
2018-02-20T11:48:30.439Z,45.10
2018-02-20T11:50:57.922Z,47.43
2018-02-20T11:53:25.386Z,47.47
2018-02-20T11:55:52.943Z,43.83
2018-02-20T11:58:35.346Z,48.03
2018-02-20T12:01:02.807Z,44.77
2018-02-20T12:03:30.282Z,44.47
2018-02-20T12:05:57.790Z,45.23
2018-02-20T12:08:25.283Z,44.57
2018-02-20T12:10:52.740Z,46.77
2018-02-20T12:13:20.217Z,46.33
2018-02-20T12:15:47.698Z,51.37
2018-02-20T12:18:15.945Z,47.50
2018-02-20T12:20:43.419Z,50.90
2018-02-20T12:23:10.894Z,48.43
2018-02-20T12:25:38.361Z,50.07
2018-02-20T12:28:05.842Z,51.10
2018-02-20T12:30:33.315Z,50.50
2018-02-20T12:33:00.795Z,51.83
2018-02-20T12:35:28.291Z,49.00
2018-02-20T12:37:55.801Z,51.13
2018-02-20T12:40:23.261Z,47.60
2018-02-20T12:42:50.738Z,49.70
2018-02-20T12:45:18.206Z,52.30
2018-02-20T12:47:46.450Z,51.90
2018-02-20T12:50:13.907Z,52.00
2018-02-20T12:52:41.385Z,54.67
2018-02-20T12:55:08.852Z,54.00
2018-02-20T12:57:37.093Z,53.97
2018-02-20T13:00:04.559Z,50.37
2018-02-20T13:02:32.035Z,51.50
2018-02-20T13:05:00.099Z,50.07
2018-02-20T13:07:27.572Z,51.03
2018-02-20T13:09:55.819Z,50.90
2018-02-20T13:12:23.296Z,55.07
2018-02-20T13:14:50.764Z,52.73
2018-02-20T13:17:18.236Z,55.00
2018-02-20T13:19:46.481Z,56.23
2018-02-20T13:22:13.962Z,56.13
2018-02-20T13:24:42.208Z,53.10
2018-02-20T13:27:09.688Z,54.80
2018-02-20T13:29:37.145Z,54.27
2018-02-20T13:32:04.628Z,52.77
2018-02-20T13:34:32.105Z,53.37
2018-02-20T13:36:59.592Z,55.03
2018-02-20T13:39:27.064Z,54.00
2018-02-20T13:41:54.531Z,52.03
2018-02-20T13:44:22.019Z,52.90
2018-02-20T13:46:49.477Z,51.00
2018-02-20T13:49:17.021Z,50.53
2018-02-20T13:54:37.826Z,51.57
2018-02-20T13:57:05.293Z,52.70
2018-02-20T13:59:32.764Z,55.00
2018-02-20T14:02:00.985Z,54.27
2018-02-20T14:04:28.454Z,51.00
2018-02-20T14:06:55.922Z,53.90
2018-02-20T14:09:23.394Z,50.80
2018-02-20T14:11:52.231Z,51.80
2018-02-20T14:14:19.711Z,53.47
2018-02-20T14:16:47.174Z,49.97
2018-02-20T14:19:14.646Z,49.73
2018-02-20T14:21:42.110Z,50.53
2018-02-20T14:24:09.578Z,50.90
2018-02-20T14:26:37.053Z,52.90
2018-02-20T14:29:05.325Z,50.80
2018-02-20T14:31:32.777Z,47.00
2018-02-20T14:34:00.252Z,49.63
2018-02-20T14:36:28.482Z,49.47
2018-02-20T14:38:56.729Z,48.37
2018-02-20T14:41:24.199Z,49.97
2018-02-20T14:43:51.682Z,51.80
2018-02-20T14:46:19.155Z,49.40
2018-02-20T14:48:47.438Z,50.87
2018-02-20T14:51:14.912Z,50.00
2018-02-20T14:53:43.156Z,48.33
2018-02-20T14:56:10.622Z,49.70
2018-02-20T14:58:38.118Z,51.90
2018-02-20T15:01:05.595Z,51.17
2018-02-20T15:03:33.068Z,50.03
2018-02-20T15:06:00.534Z,47.20
2018-02-20T15:08:28.016Z,48.30
2018-02-20T15:10:55.476Z,50.27
2018-02-20T15:13:22.951Z,50.03
2018-02-20T15:15:51.182Z,47.27
2018-02-20T15:18:18.669Z,47.70
2018-02-20T15:20:46.139Z,48.50
2018-02-20T15:23:14.379Z,48.10
2018-02-20T15:25:41.846Z,46.70
2018-02-20T15:28:09.327Z,48.57
2018-02-20T15:30:37.570Z,48.73
2018-02-20T15:33:05.051Z,50.00
2018-02-20T15:35:32.506Z,49.60
2018-02-20T15:37:59.992Z,47.33
2018-02-20T15:40:28.214Z,50.80
2018-02-20T15:42:55.681Z,50.70
2018-02-20T15:45:23.151Z,48.10
2018-02-20T15:47:50.670Z,48.83
2018-02-20T15:50:18.136Z,50.67
2018-02-20T15:52:45.611Z,49.37
2018-02-20T15:55:13.084Z,50.20
2018-02-20T15:57:40.578Z,50.77
2018-02-20T16:00:08.812Z,51.40
2018-02-20T16:02:36.276Z,51.07
2018-02-20T16:05:03.790Z,46.77
2018-02-20T16:07:31.271Z,51.20
2018-02-20T16:09:58.733Z,48.23
2018-02-20T16:12:26.207Z,49.40
2018-02-20T16:14:53.688Z,49.40
2018-02-20T16:17:21.918Z,48.90
2018-02-20T16:19:49.399Z,50.70
2018-02-20T16:22:16.890Z,49.13
2018-02-20T16:24:45.128Z,51.30
2018-02-20T16:27:12.610Z,48.40
2018-02-20T16:29:40.082Z,50.60
2018-02-20T16:32:08.306Z,48.50
2018-02-20T16:34:35.791Z,49.90
2018-02-20T16:37:03.283Z,49.70
2018-02-20T16:39:31.531Z,51.37
2018-02-20T16:41:59.014Z,46.77
2018-02-20T16:44:27.253Z,48.00
2018-02-20T16:46:54.723Z,49.60
2018-02-20T16:49:22.189Z,52.63
2018-02-20T16:51:50.436Z,48.57
2018-02-20T16:54:17.915Z,50.93
2018-02-20T16:56:45.401Z,52.97
2018-02-20T16:59:13.646Z,53.00
2018-02-20T17:01:41.110Z,51.00
2018-02-20T17:04:08.583Z,51.90
2018-02-20T17:06:37.307Z,52.60
2018-02-20T17:09:04.803Z,51.40
2018-02-20T17:11:32.282Z,53.33
2018-02-20T17:13:59.758Z,50.40
2018-02-20T17:16:27.983Z,53.70
2018-02-20T17:18:56.222Z,52.63
2018-02-20T17:21:23.690Z,50.40
2018-02-20T17:23:51.158Z,50.73
2018-02-20T17:26:18.668Z,51.80
2018-02-20T17:28:46.142Z,50.60
2018-02-20T17:31:14.388Z,54.23
2018-02-20T17:33:41.869Z,51.30
2018-02-20T17:36:10.126Z,52.90
2018-02-20T17:38:37.604Z,52.10
2018-02-20T17:41:05.822Z,54.30
2018-02-20T17:43:33.307Z,50.83
2018-02-20T17:46:00.811Z,52.63
2018-02-20T17:48:29.071Z,55.03
2018-02-20T17:50:57.308Z,52.40
2018-02-20T17:53:24.774Z,53.20
2018-02-20T17:55:52.244Z,59.10
2018-02-20T17:58:19.731Z,53.87
2018-02-20T18:00:47.960Z,52.10
2018-02-20T18:03:15.495Z,55.37
2018-02-20T18:05:43.003Z,54.70
2018-02-20T18:08:10.490Z,52.50
2018-02-20T18:10:37.972Z,56.17
2018-02-20T18:13:05.458Z,57.17
2018-02-20T18:15:32.936Z,53.60
2018-02-20T18:18:00.403Z,55.90
2018-02-20T18:20:27.886Z,56.40
2018-02-20T18:22:56.107Z,56.20
2018-02-20T18:25:23.578Z,52.17
2018-02-20T18:27:51.050Z,56.13
2018-02-20T18:30:18.531Z,57.70
2018-02-20T18:32:46.760Z,55.67
2018-02-20T18:35:14.234Z,56.40
2018-02-20T18:37:41.724Z,55.67
2018-02-20T18:40:09.217Z,61.70
2018-02-20T18:42:36.690Z,60.20
2018-02-20T18:45:04.166Z,57.73
2018-02-20T18:47:31.630Z,61.93
2018-02-20T18:49:59.823Z,58.50
2018-02-20T18:52:28.064Z,59.70
2018-02-20T18:54:55.538Z,56.53
2018-02-20T18:57:23.794Z,60.97
2018-02-20T18:59:51.271Z,59.80
2018-02-20T19:02:18.781Z,60.63
2018-02-20T19:04:46.263Z,64.07
2018-02-20T19:07:13.727Z,61.17
2018-02-20T19:09:41.201Z,59.27
2018-02-20T19:12:08.682Z,65.20
2018-02-20T19:14:36.923Z,64.00
2018-02-20T19:17:04.399Z,60.07
2018-02-20T19:19:31.877Z,64.43
2018-02-20T19:22:00.111Z,62.57
2018-02-20T19:24:27.691Z,63.93
2018-02-20T19:26:55.157Z,61.43
2018-02-20T19:29:23.397Z,66.20
2018-02-20T19:31:50.866Z,67.37
2018-02-20T19:34:18.352Z,64.33
2018-02-20T19:36:46.587Z,63.00
2018-02-20T19:39:14.092Z,63.80
2018-02-20T19:41:42.328Z,66.50
2018-02-20T19:44:09.814Z,64.37
2018-02-20T19:46:37.287Z,61.67
2018-02-20T19:49:05.526Z,63.77
2018-02-20T19:51:33.773Z,70.80
2018-02-20T19:54:01.282Z,70.43
2018-02-20T19:56:28.770Z,64.67
2018-02-20T19:58:57.013Z,68.07
2018-02-20T20:01:24.483Z,64.30
2018-02-20T20:03:51.953Z,65.77
2018-02-20T20:06:20.226Z,64.40
2018-02-20T20:08:48.455Z,62.40
2018-02-20T20:11:18.728Z,59.77
2018-02-20T20:13:46.946Z,64.97
2018-02-20T20:16:14.442Z,65.47
2018-02-20T20:18:41.909Z,63.80
2018-02-20T20:21:10.176Z,61.83
2018-02-20T20:23:37.632Z,64.60
2018-02-20T20:26:05.118Z,63.40
2018-02-20T20:28:33.372Z,68.10
2018-02-20T20:31:00.860Z,68.87
2018-02-20T20:33:29.116Z,68.60
2018-02-20T20:35:57.382Z,67.53
2018-02-20T20:38:24.899Z,66.33
2018-02-20T20:40:52.387Z,65.20
2018-02-20T20:43:19.878Z,60.70
2018-02-20T20:45:47.369Z,64.30
2018-02-20T20:48:14.858Z,63.47
2018-02-20T20:50:42.326Z,61.70
2018-02-20T20:53:09.794Z,63.77
2018-02-20T20:55:37.295Z,61.80
2018-02-20T20:58:04.781Z,60.80
2018-02-20T21:00:32.280Z,63.30
2018-02-20T21:02:59.742Z,63.77
2018-02-20T21:05:27.987Z,62.67
2018-02-20T21:07:55.476Z,63.30
2018-02-20T21:10:22.989Z,62.70
2018-02-20T21:12:50.482Z,61.37
2018-02-20T21:15:18.741Z,65.37
2018-02-20T21:17:46.223Z,63.00
2018-02-20T21:20:13.759Z,60.77
2018-02-20T21:22:41.239Z,62.97
2018-02-20T21:25:08.720Z,63.47
2018-02-20T21:27:36.208Z,65.63
2018-02-20T21:30:03.745Z,59.97
2018-02-20T21:32:31.177Z,67.57
2018-02-20T21:34:58.660Z,67.80
2018-02-20T21:37:26.130Z,66.63
2018-02-20T21:39:53.621Z,67.63
2018-02-20T21:42:21.103Z,61.53
2018-02-20T21:44:48.660Z,61.37
2018-02-20T21:47:16.123Z,62.07
2018-02-20T21:49:43.639Z,85.60
2018-02-20T21:52:11.098Z,68.77
2018-02-20T21:54:38.572Z,60.50
2018-02-20T21:57:06.031Z,63.50
2018-02-20T21:59:33.514Z,61.30
2018-02-20T22:02:01.007Z,59.90
2018-02-20T22:04:28.476Z,59.77
2018-02-20T22:06:55.946Z,60.10
2018-02-20T22:09:23.402Z,59.37
2018-02-20T22:11:50.900Z,55.73
2018-02-20T22:14:19.216Z,64.70
2018-02-20T22:16:46.691Z,58.03
2018-02-20T22:19:14.167Z,57.50
2018-02-20T22:21:41.641Z,55.60
2018-02-20T22:24:09.144Z,54.67
2018-02-20T22:26:36.583Z,56.30
2018-02-20T22:29:05.230Z,55.60
2018-02-20T22:31:33.476Z,58.40
2018-02-20T22:34:00.944Z,54.97
2018-02-20T22:36:28.422Z,54.93
2018-02-20T22:38:55.886Z,53.73
2018-02-20T22:41:23.369Z,51.47
2018-02-20T22:43:51.623Z,54.70
2018-02-20T22:46:19.090Z,52.83
2018-02-20T22:48:46.556Z,54.30
2018-02-20T22:51:14.095Z,54.60
2018-02-20T22:53:41.631Z,50.60
2018-02-20T22:56:09.120Z,54.97
2018-02-20T22:58:36.586Z,52.43
2018-02-20T23:01:04.064Z,52.43
2018-02-20T23:03:31.534Z,54.33
2018-02-20T23:05:59.033Z,52.30
2018-02-20T23:11:31.818Z,54.27
2018-02-20T23:13:59.274Z,52.77
2018-02-20T23:16:26.759Z,51.27
2018-02-20T23:18:54.232Z,53.80
2018-02-20T23:21:21.706Z,53.73
2018-02-20T23:23:49.947Z,53.00
2018-02-20T23:26:17.450Z,52.50
2018-02-20T23:28:45.701Z,53.13
2018-02-20T23:31:13.184Z,50.30
2018-02-20T23:33:41.405Z,55.80
2018-02-20T23:36:08.878Z,50.03
2018-02-20T23:38:36.359Z,50.67
2018-02-20T23:41:03.842Z,51.63
2018-02-20T23:43:32.830Z,51.47
2018-02-20T23:46:01.087Z,51.17
2018-02-20T23:48:28.550Z,49.20
2018-02-20T23:51:01.815Z,55.20
2018-02-20T23:53:29.311Z,50.95
2018-02-20T23:55:57.550Z,54.17
2018-02-20T23:58:25.027Z,49.10
